Time;durP1;ratioP1;P1;durP2;ratioP2;P2;SDS_P1;SDS_P2;PMS_P1;PMS_P2;Temp;Humidity;BMP_temperature;BMP_pressure;BME280_temperature;BME280_humidity;BME280_pressure;Samples;Min_cycle;Max_cycle;Signal;HPM_P1;HPM_P2
2024/01/15 00:00:26;;;;;;;3.13;1.63;;;3.30;85.00;;;;;;5075818;28;20290;-77
2024/01/15 00:02:53;;;;;;;3.20;1.70;;;3.30;84.70;;;;;;5075609;28;20543;-77
2024/01/15 00:05:20;;;;;;;3.45;2.20;;;3.30;84.50;;;;;;5075432;28;20750;-77
2024/01/15 00:07:47;;;;;;;3.15;1.70;;;3.20;84.70;;;;;;5086306;28;20224;-77
2024/01/15 00:10:14;;;;;;;4.40;1.90;;;3.20;84.50;;;;;;5095782;28;20272;-77
2024/01/15 00:12:41;;;;;;;3.53;2.10;;;3.20;84.40;;;;;;5095396;28;20269;-76
2024/01/15 00:15:08;;;;;;;3.47;1.98;;;3.20;84.00;;;;;;5095230;28;20300;-76
2024/01/15 00:17:37;;;;;;;2.40;1.45;;;3.10;83.80;;;;;;5095321;28;20299;-76
2024/01/15 00:20:04;;;;;;;2.88;1.83;;;3.10;83.60;;;;;;5095654;28;20272;-76
2024/01/15 00:22:31;;;;;;;3.30;1.67;;;3.10;83.10;;;;;;5080914;28;20182;-77
2024/01/15 00:24:59;;;;;;;3.70;1.80;;;3.10;82.90;;;;;;5074907;28;20723;-77
2024/01/15 00:27:26;;;;;;;3.95;1.98;;;3.10;83.00;;;;;;5075226;28;20182;-77
2024/01/15 00:29:54;;;;;;;4.00;1.77;;;3.10;83.20;;;;;;5074911;28;20650;-76
2024/01/15 00:32:21;;;;;;;2.80;1.35;;;3.10;83.00;;;;;;5075193;28;20585;-76
2024/01/15 00:34:50;;;;;;;5.60;1.98;;;3.10;82.70;;;;;;5075159;28;20194;-77
2024/01/15 00:37:17;;;;;;;3.25;1.80;;;3.10;82.50;;;;;;5074415;28;20186;-77
2024/01/15 00:39:44;;;;;;;3.35;1.90;;;3.10;82.30;;;;;;5074444;28;20591;-76
2024/01/15 00:42:11;;;;;;;3.55;1.85;;;3.10;82.00;;;;;;5074779;28;20222;-77
2024/01/15 00:44:38;;;;;;;2.83;1.52;;;3.10;82.00;;;;;;5074795;28;20202;-77
2024/01/15 00:47:05;;;;;;;3.05;1.33;;;3.10;81.80;;;;;;5074889;28;20282;-77
2024/01/15 00:49:32;;;;;;;2.90;1.40;;;3.20;81.80;;;;;;5074800;28;20281;-76
2024/01/15 00:52:00;;;;;;;6.15;2.40;;;3.20;81.40;;;;;;5086373;28;20234;-76
2024/01/15 00:54:27;;;;;;;4.38;2.17;;;3.30;81.20;;;;;;5094899;28;20283;-76
2024/01/15 00:56:55;;;;;;;3.67;1.60;;;3.30;81.00;;;;;;5094851;28;20276;-77
2024/01/15 00:59:22;;;;;;;3.38;2.15;;;3.30;81.00;;;;;;5094785;28;20192;-76
2024/01/15 01:01:49;;;;;;;5.18;2.70;;;3.40;81.10;;;;;;5094735;28;20272;-76
2024/01/15 01:04:16;;;;;;;3.65;1.98;;;3.40;81.00;;;;;;5093229;28;20292;-76
2024/01/15 01:06:42;;;;;;;4.28;2.40;;;3.40;81.00;;;;;;5094549;28;20268;-76
2024/01/15 01:09:11;;;;;;;4.53;1.92;;;3.50;81.00;;;;;;5094676;28;20276;-76
2024/01/15 01:11:38;;;;;;;3.83;1.85;;;3.50;80.60;;;;;;5094262;28;20189;-76
2024/01/15 01:14:05;;;;;;;6.32;2.15;;;3.50;80.40;;;;;;5094338;28;20673;-76
2024/01/15 01:16:38;;;;;;;3.90;1.70;;;3.50;80.30;;;;;;5075440;28;20210;-76
2024/01/15 01:19:05;;;;;;;3.95;1.95;;;3.50;80.20;;;;;;5073936;28;20638;-76
2024/01/15 01:21:32;;;;;;;2.80;1.60;;;3.50;80.20;;;;;;5073848;28;20280;-76
2024/01/15 01:23:59;;;;;;;14.55;4.65;;;3.50;79.80;;;;;;5073493;28;20292;-76
2024/01/15 01:26:27;;;;;;;4.38;1.90;;;3.50;79.80;;;;;;5073511;28;20277;-76
2024/01/15 01:28:54;;;;;;;2.97;1.67;;;3.50;79.90;;;;;;5086182;28;20284;-76
2024/01/15 01:31:21;;;;;;;3.03;1.80;;;3.50;79.70;;;;;;5094634;28;20193;-76
2024/01/15 01:33:48;;;;;;;3.65;2.10;;;3.50;79.40;;;;;;5092719;28;20289;-76
2024/01/15 01:36:15;;;;;;;3.70;2.08;;;3.50;79.00;;;;;;5074192;28;20232;-76
2024/01/15 01:38:42;;;;;;;4.78;2.70;;;3.60;78.70;;;;;;5075202;28;21078;-76
2024/01/15 01:41:09;;;;;;;3.53;1.90;;;3.60;78.40;;;;;;5094195;28;20217;-76
2024/01/15 01:43:37;;;;;;;2.95;2.05;;;3.60;78.00;;;;;;5093604;28;20276;-76
2024/01/15 01:46:05;;;;;;;5.68;2.47;;;3.60;77.60;;;;;;5093921;28;20221;-76
2024/01/15 01:48:33;;;;;;;3.88;2.58;;;3.60;77.60;;;;;;5093968;28;20243;-76
2024/01/15 01:51:03;;;;;;;4.60;2.97;;;3.60;77.40;;;;;;5092903;28;20345;-77
2024/01/15 01:53:32;;;;;;;9.82;4.00;;;3.60;77.20;;;;;;5093939;28;20276;-76
2024/01/15 01:55:59;;;;;;;6.38;3.60;;;3.60;77.10;;;;;;5093909;28;20193;-76
2024/01/15 01:58:27;;;;;;;6.20;3.63;;;3.60;77.00;;;;;;5094209;28;20185;-77
2024/01/15 02:00:55;;;;;;;6.28;3.72;;;3.60;76.90;;;;;;5093854;28;20234;-76
2024/01/15 02:03:22;;;;;;;6.32;3.45;;;3.50;76.70;;;;;;5092144;28;20276;-76
2024/01/15 02:05:50;;;;;;;5.57;3.50;;;3.50;76.60;;;;;;5093256;28;20266;-76
2024/01/15 02:08:17;;;;;;;6.18;4.25;;;3.50;76.20;;;;;;5093784;28;20257;-77
2024/01/15 02:10:44;;;;;;;8.07;3.30;;;3.50;76.60;;;;;;5093377;28;20185;-77
2024/01/15 02:13:11;;;;;;;12.20;3.60;;;3.50;76.70;;;;;;5093670;28;20289;-76
2024/01/15 02:15:38;;;;;;;6.65;3.53;;;3.50;77.80;;;;;;5082520;28;20299;-77
2024/01/15 02:18:08;;;;;;;5.75;3.58;;;3.50;76.90;;;;;;5073301;28;20235;-77
2024/01/15 02:20:35;;;;;;;6.30;3.70;;;3.50;76.40;;;;;;5073001;28;20190;-77
2024/01/15 02:23:10;;;;;;;6.45;3.70;;;3.50;76.20;;;;;;5073944;28;20230;-76
2024/01/15 02:25:38;;;;;;;6.20;3.72;;;3.40;76.20;;;;;;5073368;28;20204;-77
2024/01/15 02:28:06;;;;;;;9.13;5.20;;;3.40;76.60;;;;;;5085991;28;20268;-76
2024/01/15 02:30:33;;;;;;;10.52;6.25;;;3.40;76.50;;;;;;5090240;28;20269;-76
2024/01/15 02:33:00;;;;;;;14.18;7.53;;;3.30;76.60;;;;;;5089833;28;20189;-76
2024/01/15 02:35:27;;;;;;;12.18;6.57;;;3.20;76.40;;;;;;5093406;28;20602;-76
2024/01/15 02:37:54;;;;;;;9.98;6.88;;;3.20;76.30;;;;;;5089317;28;20266;-76
2024/01/15 02:40:22;;;;;;;17.10;8.10;;;3.10;75.60;;;;;;5072635;28;20273;-76
2024/01/15 02:42:49;;;;;;;12.77;6.72;;;3.00;74.90;;;;;;5072971;28;20182;-76
2024/01/15 02:45:16;;;;;;;13.80;9.15;;;2.80;74.90;;;;;;5072865;28;20245;-76
2024/01/15 02:47:43;;;;;;;11.00;7.53;;;2.70;75.00;;;;;;5073064;28;20221;-76
2024/01/15 02:50:10;;;;;;;18.58;8.63;;;2.70;75.00;;;;;;5073012;28;20191;-76
2024/01/15 02:52:37;;;;;;;17.70;7.40;;;2.60;75.00;;;;;;5075584;28;20583;-77
2024/01/15 02:55:04;;;;;;;17.30;9.00;;;2.50;75.20;;;;;;5092980;28;20280;-76
2024/01/15 02:57:33;;;;;;;12.40;7.10;;;2.50;75.40;;;;;;5092932;28;20190;-76
2024/01/15 03:00:00;;;;;;;11.25;7.88;;;2.40;75.40;;;;;;5092513;28;20722;-76
2024/01/15 03:02:27;;;;;;;12.23;6.53;;;2.40;75.30;;;;;;5090875;28;20181;-76
2024/01/15 03:04:54;;;;;;;15.65;8.65;;;2.30;75.40;;;;;;5072707;28;20296;-76
2024/01/15 03:07:20;;;;;;;13.52;7.35;;;2.30;74.90;;;;;;5072820;28;20537;-76
2024/01/15 03:09:47;;;;;;;13.57;7.28;;;2.20;74.70;;;;;;5072907;28;20273;-76
2024/01/15 03:12:14;;;;;;;12.25;7.68;;;2.20;75.00;;;;;;5072852;28;20276;-76
2024/01/15 03:14:43;;;;;;;19.00;6.97;;;2.20;75.40;;;;;;5079602;28;20244;-76
2024/01/15 03:17:11;;;;;;;12.48;7.38;;;2.10;75.30;;;;;;5097027;28;20273;-76
2024/01/15 03:19:38;;;;;;;14.50;8.13;;;2.20;75.20;;;;;;5096523;28;20623;-76
2024/01/15 03:22:05;;;;;;;13.75;7.10;;;2.10;75.10;;;;;;5096806;28;20276;-77
2024/01/15 03:24:33;;;;;;;10.23;6.03;;;2.10;74.70;;;;;;5089972;28;20746;-76
2024/01/15 03:26:59;;;;;;;7.90;5.90;;;2.10;73.70;;;;;;5075343;28;20273;-77
2024/01/15 03:29:27;;;;;;;14.73;6.90;;;2.00;72.80;;;;;;5076575;28;20514;-76
2024/01/15 03:31:56;;;;;;;11.48;6.57;;;2.10;72.40;;;;;;5075938;28;20282;-76
2024/01/15 03:34:22;;;;;;;12.55;6.30;;;2.00;71.00;;;;;;5076211;28;20277;-76
2024/01/15 03:36:49;;;;;;;10.13;5.65;;;2.00;70.10;;;;;;5085644;28;20268;-76
2024/01/15 03:39:16;;;;;;;9.60;6.13;;;1.90;69.40;;;;;;5096145;28;20272;-76
2024/01/15 03:41:43;;;;;;;12.82;7.53;;;1.90;69.10;;;;;;5096015;28;20276;-76
2024/01/15 03:44:10;;;;;;;12.35;6.05;;;1.90;69.10;;;;;;5079506;28;20596;-76
2024/01/15 03:46:37;;;;;;;10.48;6.03;;;1.80;69.30;;;;;;5076255;28;20277;-76
2024/01/15 03:49:05;;;;;;;9.50;5.53;;;1.80;69.50;;;;;;5075905;28;20186;-76
2024/01/15 03:51:32;;;;;;;11.68;5.10;;;1.80;69.00;;;;;;5075607;28;20192;-76
2024/01/15 03:53:59;;;;;;;11.38;5.18;;;1.80;68.60;;;;;;5055857;28;20269;-76
2024/01/15 03:56:26;;;;;;;9.80;6.28;;;1.80;68.40;;;;;;5080080;28;20265;-76
2024/01/15 03:58:53;;;;;;;11.52;5.18;;;1.70;68.70;;;;;;5096087;28;20592;-76
2024/01/15 04:01:20;;;;;;;13.52;6.10;;;1.70;68.60;;;;;;5096207;28;20547;-76
2024/01/15 04:03:47;;;;;;;7.70;4.47;;;1.70;68.50;;;;;;5095718;28;20280;-76
2024/01/15 04:06:15;;;;;;;7.93;4.57;;;1.70;68.30;;;;;;5084127;28;20296;-76
2024/01/15 04:08:42;;;;;;;8.32;5.93;;;1.70;68.30;;;;;;5075357;28;20198;-76
2024/01/15 04:11:09;;;;;;;6.03;4.00;;;1.60;68.10;;;;;;5075665;28;20269;-76
2024/01/15 04:13:36;;;;;;;7.97;4.47;;;1.60;68.00;;;;;;5075099;28;20241;-76
2024/01/15 04:16:04;;;;;;;8.20;4.72;;;1.70;68.10;;;;;;5075341;28;20628;-76
2024/01/15 04:18:31;;;;;;;9.60;3.65;;;1.70;67.80;;;;;;5086943;28;20573;-76
2024/01/15 04:20:58;;;;;;;9.38;5.20;;;1.60;67.50;;;;;;5095682;28;20276;-76
2024/01/15 04:23:26;;;;;;;6.07;3.88;;;1.60;67.90;;;;;;5095317;28;20276;-76
2024/01/15 04:25:53;;;;;;;7.35;4.13;;;1.70;66.80;;;;;;5095263;28;20296;-76
2024/01/15 04:28:20;;;;;;;5.93;3.70;;;1.70;66.80;;;;;;5093915;28;20608;-76
2024/01/15 04:30:47;;;;;;;9.27;4.55;;;1.60;67.00;;;;;;5092265;28;20235;-76
2024/01/15 04:33:14;;;;;;;8.00;4.43;;;1.60;66.90;;;;;;5088168;28;20598;-76
2024/01/15 04:35:41;;;;;;;7.63;3.95;;;1.60;66.90;;;;;;5075086;28;20373;-76
2024/01/15 04:38:14;;;;;;;8.13;3.90;;;1.60;67.00;;;;;;5087612;28;20265;-74
2024/01/15 04:40:42;;;;;;;11.02;5.55;;;1.70;67.00;;;;;;5095308;28;20265;-76
2024/01/15 04:43:09;;;;;;;5.53;3.40;;;1.70;66.50;;;;;;5095115;28;20251;-76
2024/01/15 04:45:36;;;;;;;7.85;3.88;;;1.70;66.70;;;;;;5095143;28;20292;-76
2024/01/15 04:48:03;;;;;;;8.30;3.72;;;1.70;66.60;;;;;;5081990;28;20265;-76
2024/01/15 04:50:30;;;;;;;6.65;3.83;;;1.60;66.30;;;;;;5074540;28;20194;-76
2024/01/15 04:52:57;;;;;;;6.82;3.83;;;1.70;66.10;;;;;;5078810;28;20261;-76
2024/01/15 04:55:24;;;;;;;10.10;4.60;;;1.70;66.00;;;;;;5095032;28;20232;-75
2024/01/15 04:57:52;;;;;;;7.07;3.72;;;1.70;66.10;;;;;;5094547;28;20693;-76
2024/01/15 05:00:19;;;;;;;13.68;6.18;;;1.70;66.40;;;;;;5095174;28;20276;-76
2024/01/15 05:02:46;;;;;;;5.95;2.67;;;1.70;66.50;;;;;;5092056;28;20232;-76
2024/01/15 05:05:13;;;;;;;6.90;4.10;;;1.70;65.80;;;;;;5074453;28;20248;-76
2024/01/15 05:07:40;;;;;;;8.80;4.00;;;1.70;65.20;;;;;;5074493;28;20276;-76
2024/01/15 05:10:08;;;;;;;7.72;4.47;;;1.70;65.00;;;;;;5074131;28;20273;-76
2024/01/15 05:12:35;;;;;;;7.05;3.50;;;1.70;65.20;;;;;;5073997;28;20624;-76
2024/01/15 05:15:04;;;;;;;6.35;3.55;;;1.70;65.10;;;;;;5077840;28;20241;-76
2024/01/15 05:17:31;;;;;;;9.43;4.03;;;1.70;64.80;;;;;;5094453;28;20266;-76
2024/01/15 05:19:58;;;;;;;6.38;4.13;;;1.70;64.70;;;;;;5094587;28;20217;-76
2024/01/15 05:22:25;;;;;;;7.18;3.83;;;1.70;64.80;;;;;;5086050;28;20257;-76
2024/01/15 05:24:52;;;;;;;4.72;3.10;;;1.70;64.10;;;;;;5073410;28;20186;-76
2024/01/15 05:27:19;;;;;;;6.40;3.50;;;1.70;64.10;;;;;;5073692;28;20205;-76
2024/01/15 05:29:46;;;;;;;5.70;3.65;;;1.60;63.80;;;;;;5073959;28;20513;-76
2024/01/15 05:32:14;;;;;;;8.00;3.97;;;1.60;64.00;;;;;;5077897;28;20264;-76
2024/01/15 05:34:41;;;;;;;5.93;3.80;;;1.60;63.90;;;;;;5094324;28;20181;-76
2024/01/15 05:37:08;;;;;;;8.75;3.58;;;1.60;63.80;;;;;;5093891;28;20224;-76
2024/01/15 05:39:35;;;;;;;9.30;4.10;;;1.60;64.10;;;;;;5094098;28;20268;-76
2024/01/15 05:42:02;;;;;;;6.28;3.40;;;1.60;64.20;;;;;;5076186;28;20561;-76
2024/01/15 05:44:29;;;;;;;20.83;6.75;;;1.60;64.10;;;;;;5081388;28;20173;-76
2024/01/15 05:46:56;;;;;;;8.00;4.10;;;1.60;64.30;;;;;;5093608;28;20732;-76
2024/01/15 05:49:24;;;;;;;6.53;4.05;;;1.60;64.20;;;;;;5094044;28;20217;-76
2024/01/15 05:51:51;;;;;;;6.80;3.40;;;1.60;64.20;;;;;;5094019;28;20267;-77
2024/01/15 05:54:19;;;;;;;7.57;4.32;;;1.60;64.20;;;;;;5092954;28;20173;-76
2024/01/15 05:56:46;;;;;;;7.75;3.70;;;1.60;64.10;;;;;;5093940;28;20535;-77
2024/01/15 05:59:13;;;;;;;7.82;4.35;;;1.60;63.50;;;;;;5093849;28;20251;-76
2024/01/15 06:01:40;;;;;;;7.95;4.38;;;1.60;63.30;;;;;;5093548;28;20618;-76
2024/01/15 06:04:07;;;;;;;8.60;3.80;;;1.60;63.20;;;;;;5091054;28;20269;-76
2024/01/15 06:06:35;;;;;;;7.68;4.13;;;1.60;63.30;;;;;;5093813;28;20209;-76
2024/01/15 06:09:05;;;;;;;11.70;5.53;;;1.60;63.10;;;;;;5093591;28;20224;-76
2024/01/15 06:11:32;;;;;;;7.88;4.20;;;1.60;62.60;;;;;;5093665;28;20196;-75
2024/01/15 06:14:00;;;;;;;8.18;4.55;;;1.60;62.70;;;;;;5091329;28;20197;-77
2024/01/15 06:16:27;;;;;;;5.00;3.22;;;1.60;62.80;;;;;;5073439;28;20667;-76
2024/01/15 06:18:54;;;;;;;7.45;3.67;;;1.60;62.80;;;;;;5072956;28;20205;-75
2024/01/15 06:21:21;;;;;;;17.67;8.82;;;1.60;63.10;;;;;;5072974;28;20228;-76
2024/01/15 06:23:49;;;;;;;11.50;5.70;;;1.60;63.30;;;;;;5073322;28;20272;-76
2024/01/15 06:26:16;;;;;;;8.45;4.20;;;1.60;63.80;;;;;;5090439;28;20240;-76
2024/01/15 06:28:43;;;;;;;7.07;3.97;;;1.60;64.00;;;;;;5093350;28;20221;-76
2024/01/15 06:31:10;;;;;;;7.45;3.50;;;1.60;64.00;;;;;;5093102;28;20713;-77
2024/01/15 06:33:37;;;;;;;12.80;6.90;;;1.60;63.90;;;;;;5090618;28;20265;-77
2024/01/15 06:36:05;;;;;;;8.15;4.13;;;1.60;64.10;;;;;;5083302;28;20218;-76
2024/01/15 06:38:32;;;;;;;7.72;4.00;;;1.60;64.50;;;;;;5092940;28;20527;-76
2024/01/15 06:41:01;;;;;;;6.18;3.90;;;1.60;64.30;;;;;;5093471;28;20270;-76
2024/01/15 06:43:28;;;;;;;9.80;4.45;;;1.60;64.20;;;;;;5093046;28;20587;-76
2024/01/15 06:45:54;;;;;;;11.25;3.80;;;1.60;64.60;;;;;;5090940;28;20244;-76
2024/01/15 06:48:21;;;;;;;209.50;46.67;;;1.60;64.80;;;;;;5093268;28;20221;-76
2024/01/15 06:50:48;;;;;;;12.18;5.70;;;1.60;64.90;;;;;;5093151;28;20730;-76
2024/01/15 06:53:15;;;;;;;6.43;3.70;;;1.60;64.90;;;;;;5097344;28;20268;-76
2024/01/15 06:55:42;;;;;;;6.32;3.70;;;1.60;64.80;;;;;;5094526;28;20177;-76
2024/01/15 06:58:11;;;;;;;8.82;3.50;;;1.60;64.40;;;;;;5096898;28;20272;-76
2024/01/15 07:00:37;;;;;;;6.57;4.00;;;1.60;64.50;;;;;;5086986;28;20262;-76
2024/01/15 07:03:05;;;;;;;6.07;3.67;;;1.60;64.50;;;;;;5077653;28;20266;-76
2024/01/15 07:05:32;;;;;;;5.47;3.08;;;1.70;64.50;;;;;;5077375;28;20258;-75
2024/01/15 07:07:59;;;;;;;8.40;4.20;;;1.70;64.50;;;;;;5077678;28;20182;-76
2024/01/15 07:10:26;;;;;;;7.40;4.28;;;1.70;64.50;;;;;;5076700;28;20272;-77
2024/01/15 07:12:53;;;;;;;5.40;3.20;;;1.70;64.50;;;;;;5077119;28;20178;-77
2024/01/15 07:15:21;;;;;;;21.77;7.57;;;1.70;64.70;;;;;;5076262;28;20221;-77
2024/01/15 07:17:48;;;;;;;9.63;4.43;;;1.70;64.80;;;;;;5077057;28;20229;-76
2024/01/15 07:20:19;;;;;;;8.63;4.40;;;1.70;64.80;;;;;;5075640;28;20222;-74
2024/01/15 07:22:47;;;;;;;8.55;3.08;;;1.70;65.00;;;;;;5073778;28;20182;-76
2024/01/15 07:25:16;;;;;;;8.60;4.90;;;1.80;65.20;;;;;;5076454;28;20190;-76
2024/01/15 07:27:46;;;;;;;7.80;4.60;;;1.80;65.30;;;;;;5088059;28;20205;-76
2024/01/15 07:30:14;;;;;;;8.77;4.60;;;1.80;65.60;;;;;;5090475;28;20213;-76
2024/01/15 07:32:42;;;;;;;8.75;3.90;;;1.80;65.20;;;;;;5086195;28;20819;-76
2024/01/15 07:35:10;;;;;;;7.40;4.00;;;1.80;65.30;;;;;;5088966;28;20231;-76
2024/01/15 07:37:37;;;;;;;6.47;3.45;;;1.80;65.00;;;;;;5095899;28;20216;-76
2024/01/15 07:40:06;;;;;;;9.27;4.05;;;1.80;65.00;;;;;;5096436;28;20181;-76
2024/01/15 07:42:34;;;;;;;6.60;3.65;;;1.90;65.40;;;;;;5077816;28;20218;-74
2024/01/15 07:45:01;;;;;;;6.45;3.70;;;1.90;65.40;;;;;;5073987;28;20201;-77
2024/01/15 07:47:28;;;;;;;5.20;2.92;;;1.90;64.90;;;;;;5075136;28;20600;-77
2024/01/15 07:49:56;;;;;;;8.10;4.10;;;1.90;65.00;;;;;;5080539;28;20670;-77
2024/01/15 07:52:24;;;;;;;8.00;4.07;;;1.90;65.40;;;;;;5078192;28;20186;-75
2024/01/15 07:54:51;;;;;;;7.30;3.58;;;2.00;65.70;;;;;;5075647;28;20277;-76
2024/01/15 07:57:18;;;;;;;5.38;3.80;;;2.00;66.00;;;;;;5093735;28;20185;-77
2024/01/15 07:59:45;;;;;;;8.38;4.35;;;2.00;65.70;;;;;;5093649;28;20189;-77
2024/01/15 08:02:12;;;;;;;7.05;4.63;;;2.00;65.70;;;;;;5074503;28;20269;-76
2024/01/15 08:04:39;;;;;;;7.38;3.90;;;2.10;65.80;;;;;;5074595;28;20631;-76
2024/01/15 08:07:07;;;;;;;7.55;3.55;;;2.10;66.10;;;;;;5074027;28;20210;-76
2024/01/15 08:09:34;;;;;;;8.77;4.28;;;2.10;66.60;;;;;;5073958;28;20182;-79
2024/01/15 08:12:01;;;;;;;7.28;3.90;;;2.10;66.90;;;;;;5074530;28;20232;-81
2024/01/15 08:14:28;;;;;;;9.23;4.85;;;2.20;67.20;;;;;;5074137;28;20178;-80
2024/01/15 08:16:55;;;;;;;6.10;3.80;;;2.20;67.30;;;;;;5075795;28;20281;-80
2024/01/15 08:19:22;;;;;;;5.65;3.65;;;2.20;67.60;;;;;;5095057;28;20276;-80
2024/01/15 08:21:49;;;;;;;6.03;3.83;;;2.20;67.90;;;;;;5092574;28;20280;-80
2024/01/15 08:24:17;;;;;;;15.65;7.38;;;2.30;68.40;;;;;;5075674;28;20364;-80
2024/01/15 08:26:45;;;;;;;9.80;5.90;;;2.30;68.30;;;;;;5074827;28;20249;-80
2024/01/15 08:29:12;;;;;;;10.77;8.13;;;2.30;68.40;;;;;;5074384;28;20631;-80
2024/01/15 08:31:39;;;;;;;8.07;5.80;;;2.30;68.60;;;;;;5074908;28;20217;-80
2024/01/15 08:34:06;;;;;;;10.57;4.60;;;2.30;68.90;;;;;;5075071;28;20592;-80
2024/01/15 08:36:35;;;;;;;12.32;6.80;;;2.40;69.10;;;;;;5073964;28;20198;-80
2024/01/15 08:39:03;;;;;;;8.70;5.57;;;2.40;68.80;;;;;;5075017;28;20272;-80
2024/01/15 08:41:32;;;;;;;11.40;6.28;;;2.40;69.00;;;;;;5075016;28;20186;-80
2024/01/15 08:43:59;;;;;;;17.65;10.15;;;2.40;69.40;;;;;;5074872;28;20186;-80
2024/01/15 08:46:26;;;;;;;10.35;6.22;;;2.40;69.60;;;;;;5074764;28;20246;-80
2024/01/15 08:48:53;;;;;;;13.15;8.70;;;2.50;69.40;;;;;;5074756;28;20273;-80
2024/01/15 08:51:20;;;;;;;12.35;7.15;;;2.50;68.80;;;;;;5074350;28;20268;-80
2024/01/15 08:53:47;;;;;;;5.93;4.00;;;2.50;69.10;;;;;;5074692;28;20276;-80
2024/01/15 08:56:14;;;;;;;15.25;10.63;;;2.50;69.00;;;;;;5074567;28;20276;-80
2024/01/15 08:58:42;;;;;;;9.73;5.10;;;2.50;69.00;;;;;;5074139;28;20660;-79
2024/01/15 09:01:09;;;;;;;22.85;13.43;;;2.60;69.20;;;;;;5074442;28;20272;-80
2024/01/15 09:03:36;;;;;;;23.38;12.60;;;2.60;69.30;;;;;;5074429;28;20268;-80
2024/01/15 09:06:03;;;;;;;17.58;10.98;;;2.60;69.70;;;;;;5074245;28;20222;-80
2024/01/15 09:08:30;;;;;;;24.35;14.10;;;2.60;70.20;;;;;;5074272;28;20221;-80
2024/01/15 09:10:58;;;;;;;16.98;7.03;;;2.60;70.90;;;;;;5073863;28;20277;-80
2024/01/15 09:13:25;;;;;;;35.17;17.90;;;2.60;71.20;;;;;;5073583;28;20650;-81
2024/01/15 09:15:53;;;;;;;15.43;10.70;;;2.60;71.60;;;;;;5073781;28;20224;-80
2024/01/15 09:18:20;;;;;;;47.17;26.52;;;2.60;72.00;;;;;;5074156;28;20225;-81
2024/01/15 09:20:47;;;;;;;27.77;15.13;;;2.70;72.50;;;;;;5073764;28;20281;-80
2024/01/15 09:23:14;;;;;;;10.65;6.30;;;2.70;72.80;;;;;;5074022;28;20272;-80
2024/01/15 09:25:41;;;;;;;10.23;5.63;;;2.70;72.00;;;;;;5074007;28;20269;-80
2024/01/15 09:28:08;;;;;;;7.68;4.60;;;2.70;72.30;;;;;;5073867;28;20593;-80
2024/01/15 09:30:35;;;;;;;11.75;6.80;;;2.70;72.60;;;;;;5073826;28;20276;-80
2024/01/15 09:33:03;;;;;;;38.53;20.42;;;2.70;72.90;;;;;;5073909;28;20221;-80
2024/01/15 09:35:30;;;;;;;27.80;13.43;;;2.80;73.00;;;;;;5073818;28;20229;-80
2024/01/15 09:37:57;;;;;;;14.38;7.13;;;2.90;73.00;;;;;;5073798;28;20620;-80
2024/01/15 09:40:26;;;;;;;7.13;4.28;;;2.90;73.00;;;;;;5073316;28;20280;-80
2024/01/15 09:42:53;;;;;;;9.27;5.05;;;2.90;72.90;;;;;;5073083;28;20186;-80
2024/01/15 09:45:21;;;;;;;16.58;6.03;;;3.00;73.40;;;;;;5073704;28;20213;-80
2024/01/15 09:47:48;;;;;;;9.10;4.60;;;3.00;73.70;;;;;;5073424;28;20263;-78
2024/01/15 09:50:16;;;;;;;6.50;4.18;;;3.00;73.30;;;;;;5073762;28;20268;-79
2024/01/15 09:52:45;;;;;;;11.75;6.13;;;3.10;72.80;;;;;;5073318;28;20182;-80
2024/01/15 09:55:13;;;;;;;14.60;6.70;;;3.10;72.60;;;;;;5073412;28;20508;-79
2024/01/15 09:57:40;;;;;;;8.60;4.88;;;3.20;72.60;;;;;;5073441;28;20194;-80
2024/01/15 10:00:10;;;;;;;6.65;4.18;;;3.20;72.30;;;;;;5073442;28;20186;-80
2024/01/15 10:02:37;;;;;;;12.18;4.60;;;3.30;72.80;;;;;;5073373;28;20272;-80
2024/01/15 10:05:05;;;;;;;8.02;4.78;;;3.30;71.80;;;;;;5073761;28;20186;-79
2024/01/15 10:07:36;;;;;;;8.32;3.88;;;3.30;71.70;;;;;;5073288;28;20297;-79
2024/01/15 10:10:03;;;;;;;7.55;4.50;;;3.30;71.80;;;;;;5073679;28;20178;-80
2024/01/15 10:12:30;;;;;;;6.90;3.90;;;3.30;72.00;;;;;;5073311;28;20186;-80
2024/01/15 10:14:58;;;;;;;7.55;4.45;;;3.30;72.00;;;;;;5072677;28;20748;-80
2024/01/15 10:17:25;;;;;;;8.00;4.13;;;3.30;71.50;;;;;;5072929;28;20185;-80
2024/01/15 10:19:52;;;;;;;7.28;4.43;;;3.30;71.50;;;;;;5073508;28;20186;-79
2024/01/15 10:22:19;;;;;;;6.65;4.22;;;3.30;71.80;;;;;;5072873;28;20281;-80
2024/01/15 10:24:48;;;;;;;10.20;5.35;;;3.40;72.00;;;;;;5072060;28;20244;-80
2024/01/15 10:27:15;;;;;;;7.18;4.60;;;3.40;72.20;;;;;;5073140;28;20545;-80
2024/01/15 10:29:43;;;;;;;8.75;3.40;;;3.50;72.60;;;;;;5073080;28;20297;-80
2024/01/15 10:32:10;;;;;;;7.88;4.63;;;3.50;72.20;;;;;;5073060;28;20269;-80
2024/01/15 10:34:40;;;;;;;7.40;4.05;;;3.60;72.30;;;;;;5073217;28;20220;-80
2024/01/15 10:37:08;;;;;;;6.72;4.30;;;3.60;72.20;;;;;;5072838;28;20635;-80
2024/01/15 10:39:36;;;;;;;9.98;5.80;;;3.70;72.00;;;;;;5072925;28;20269;-80
2024/01/15 10:42:06;;;;;;;8.27;4.50;;;3.70;72.20;;;;;;5072980;28;20205;-80
2024/01/15 10:44:33;;;;;;;7.90;4.60;;;3.70;71.90;;;;;;5072988;28;20582;-80
2024/01/15 10:47:00;;;;;;;8.25;3.60;;;3.70;71.80;;;;;;5072685;28;20206;-79
2024/01/15 10:49:29;;;;;;;5.82;3.13;;;3.80;71.90;;;;;;5073002;28;20263;-80
2024/01/15 10:51:56;;;;;;;6.40;3.50;;;3.80;71.50;;;;;;5073175;28;20186;-80
2024/01/15 10:54:24;;;;;;;7.80;4.30;;;3.80;70.90;;;;;;5072771;28;20615;-80
2024/01/15 10:56:52;;;;;;;5.80;2.95;;;3.80;70.90;;;;;;5072556;28;20663;-80
2024/01/15 10:59:23;;;;;;;5.55;3.42;;;3.90;70.50;;;;;;5072852;28;20186;-79
2024/01/15 11:01:50;;;;;;;5.28;3.30;;;3.90;70.40;;;;;;5072628;28;20174;-80
2024/01/15 11:04:17;;;;;;;4.22;2.05;;;3.90;70.10;;;;;;5072716;28;20244;-80
2024/01/15 11:06:46;;;;;;;5.18;3.00;;;3.90;70.30;;;;;;5072755;28;20246;-80
2024/01/15 11:09:15;;;;;;;6.50;2.67;;;3.90;70.00;;;;;;5072792;28;20251;-79
2024/01/15 11:11:43;;;;;;;5.38;3.05;;;3.90;70.10;;;;;;5072879;28;20197;-80
2024/01/15 11:14:39;;;;;;;8.45;3.60;;;3.90;70.20;;;;;;5072827;28;20236;-80
2024/01/15 11:17:06;;;;;;;4.90;2.47;;;3.90;70.30;;;;;;5052473;28;20271;-81
2024/01/15 11:19:38;;;;;;;5.05;2.60;;;3.90;69.90;;;;;;5052895;28;20234;-79
2024/01/15 11:22:05;;;;;;;4.63;2.53;;;3.90;69.30;;;;;;5052845;28;20191;-80
2024/01/15 11:24:37;;;;;;;5.30;3.40;;;3.90;69.80;;;;;;5052764;28;20191;-81
2024/01/15 11:27:05;;;;;;;5.20;2.80;;;3.90;69.40;;;;;;5052160;28;20691;-81
2024/01/15 11:29:34;;;;;;;7.63;3.65;;;3.90;69.10;;;;;;5052237;28;20198;-80
2024/01/15 11:32:05;;;;;;;7.35;3.50;;;3.90;69.90;;;;;;5052755;28;20233;-81
2024/01/15 11:34:58;;;;;;;5.88;3.92;;;3.90;70.10;;;;;;5052743;28;20510;-80
2024/01/15 11:37:27;;;;;;;8.07;4.05;;;3.90;69.20;;;;;;5055609;28;20179;-81
2024/01/15 11:39:55;;;;;;;6.53;3.45;;;3.90;68.80;;;;;;5055939;28;20281;-81
2024/01/15 11:42:23;;;;;;;6.10;3.38;;;3.90;68.10;;;;;;5055730;28;20194;-81
2024/01/15 11:44:50;;;;;;;4.10;2.90;;;3.90;68.30;;;;;;5055764;28;20280;-81
2024/01/15 11:47:52;;;;;;;5.35;3.00;;;4.00;67.40;;;;;;5055597;28;20233;-81
2024/01/15 11:50:20;;;;;;;3.72;2.28;;;4.00;66.50;;;;;;5055952;28;20252;-81
2024/01/15 11:52:57;;;;;;;4.25;2.92;;;3.90;66.10;;;;;;5055174;28;20222;-82
2024/01/15 11:55:28;;;;;;;3.67;2.13;;;3.90;66.60;;;;;;5055932;28;20210;-82
2024/01/15 11:57:55;;;;;;;4.47;2.15;;;3.90;65.80;;;;;;5055883;28;20524;-79
2024/01/15 12:00:23;;;;;;;4.45;2.20;;;3.90;64.70;;;;;;5055421;28;20236;-80
2024/01/15 12:02:52;;;;;;;3.95;2.58;;;3.90;64.20;;;;;;5055330;28;20672;-80
2024/01/15 12:05:20;;;;;;;3.38;2.15;;;3.90;64.00;;;;;;5055583;28;20256;-79
2024/01/15 12:07:48;;;;;;;3.83;1.95;;;4.00;63.50;;;;;;5055378;28;20297;-79
2024/01/15 12:10:18;;;;;;;4.20;1.95;;;4.00;62.60;;;;;;5055254;28;20690;-80
2024/01/15 12:12:59;;;;;;;3.65;2.08;;;4.00;61.40;;;;;;5055182;28;20183;-80
2024/01/15 12:15:28;;;;;;;3.50;2.15;;;4.00;60.70;;;;;;5065302;28;20224;-80
2024/01/15 12:17:58;;;;;;;4.65;2.08;;;3.90;60.70;;;;;;5075402;28;20229;-80
2024/01/15 12:20:26;;;;;;;3.47;2.10;;;3.90;61.10;;;;;;5075082;28;20281;-80
2024/01/15 12:22:54;;;;;;;4.15;2.13;;;3.90;61.30;;;;;;5074975;28;20277;-80
2024/01/15 12:25:22;;;;;;;4.05;2.20;;;3.90;60.90;;;;;;5075197;28;20247;-80
2024/01/15 12:27:49;;;;;;;5.05;2.40;;;3.90;60.50;;;;;;5074779;28;20209;-79
2024/01/15 12:30:17;;;;;;;3.35;1.85;;;3.90;60.40;;;;;;5075024;28;20237;-80
2024/01/15 12:32:46;;;;;;;3.90;2.50;;;3.80;59.60;;;;;;5075076;28;20235;-79
2024/01/15 12:35:15;;;;;;;4.45;1.90;;;3.80;59.60;;;;;;5075406;28;20268;-80
2024/01/15 12:37:43;;;;;;;3.47;2.05;;;3.70;59.20;;;;;;5075151;28;20240;-79
2024/01/15 12:40:11;;;;;;;3.15;1.60;;;3.70;58.70;;;;;;5072360;28;20239;-83
2024/01/15 12:42:40;;;;;;;4.60;3.33;;;3.60;58.30;;;;;;5073358;28;20182;-80
2024/01/15 12:45:08;;;;;;;6.25;2.03;;;3.60;57.90;;;;;;5074584;28;20228;-79
2024/01/15 12:47:35;;;;;;;3.63;1.75;;;3.60;57.70;;;;;;5072925;28;20210;-80
2024/01/15 12:50:02;;;;;;;3.22;1.80;;;3.70;57.50;;;;;;5073778;28;20269;-80
2024/01/15 12:52:31;;;;;;;4.47;1.98;;;3.60;57.70;;;;;;5074245;28;20191;-80
2024/01/15 12:54:58;;;;;;;3.00;1.70;;;3.70;56.60;;;;;;5074454;28;20508;-80